createdAt,value
2017-07-22T00:00:50.369Z,57.1
2017-07-22T00:02:11.976Z,56.9
2017-07-22T00:03:13.341Z,57.2
2017-07-22T00:04:34.907Z,57.0
2017-07-22T00:05:36.268Z,57.0
2017-07-22T00:06:57.881Z,57.1
2017-07-22T00:07:59.239Z,57.0
2017-07-22T00:09:20.808Z,57.4
2017-07-22T00:10:22.170Z,57.2
2017-07-22T00:11:44.290Z,57.2
2017-07-22T00:12:45.655Z,57.1
2017-07-22T00:14:07.223Z,57.2
2017-07-22T00:15:08.584Z,56.9
2017-07-22T00:16:30.192Z,56.9
2017-07-22T00:17:31.556Z,57.3
2017-07-22T00:18:53.123Z,57.3
2017-07-22T00:19:54.485Z,57.1
2017-07-22T00:21:16.077Z,56.7
2017-07-22T00:22:17.441Z,56.7
2017-07-22T00:23:39.046Z,56.2
2017-07-22T00:24:40.410Z,56.4
2017-07-22T00:26:01.979Z,55.9
2017-07-22T00:27:03.340Z,56.2
2017-07-22T00:28:25.458Z,56.1
2017-07-22T00:29:26.824Z,56.3
2017-07-22T00:30:48.395Z,56.4
2017-07-22T00:31:49.758Z,56.2
2017-07-22T00:33:11.366Z,56.1
2017-07-22T00:34:12.726Z,56.2
2017-07-22T00:35:34.296Z,55.9
2017-07-22T00:36:35.658Z,56.1
2017-07-22T00:37:57.261Z,56.4
2017-07-22T00:38:58.630Z,56.4
2017-07-22T00:40:20.193Z,56.7
2017-07-22T00:41:21.556Z,56.5
2017-07-22T00:42:43.167Z,57.1
2017-07-22T00:43:44.528Z,56.8
2017-07-22T00:45:06.095Z,56.7
2017-07-22T00:46:07.457Z,56.9
2017-07-22T00:47:29.067Z,56.9
2017-07-22T00:48:30.429Z,56.6
2017-07-22T00:49:51.998Z,56.5
2017-07-22T00:50:53.361Z,56.8
2017-07-22T00:52:14.966Z,57.2
2017-07-22T00:53:16.330Z,57.2
2017-07-22T00:54:38.408Z,56.9
2017-07-22T00:55:39.772Z,57.2
2017-07-22T00:57:01.384Z,57.0
2017-07-22T00:58:02.744Z,57.3
2017-07-22T00:59:24.311Z,56.9
2017-07-22T01:00:25.673Z,57.0
2017-07-22T01:01:47.303Z,57.3
2017-07-22T01:02:48.668Z,57.3
2017-07-22T01:04:10.214Z,57.3
2017-07-22T01:05:11.577Z,57.7
2017-07-22T01:06:33.163Z,57.9
2017-07-22T01:07:34.527Z,57.8
2017-07-22T01:08:57.671Z,57.8
2017-07-22T01:09:59.039Z,57.6
2017-07-22T01:11:20.601Z,58.3
2017-07-22T01:12:21.971Z,58.4
2017-07-22T01:13:44.595Z,58.1
2017-07-22T01:14:45.962Z,58.2
2017-07-22T01:16:07.527Z,58.1
2017-07-22T01:17:08.889Z,57.9
2017-07-22T01:18:30.501Z,58.0
2017-07-22T01:19:31.860Z,57.9
2017-07-22T01:20:53.430Z,57.8
2017-07-22T01:21:54.795Z,58.1
2017-07-22T01:23:16.400Z,58.0
2017-07-22T01:24:17.769Z,57.8
2017-07-22T01:25:39.331Z,58.4
2017-07-22T01:26:40.694Z,58.4
2017-07-22T01:28:02.301Z,58.7
2017-07-22T01:29:03.665Z,59.4
2017-07-22T01:30:25.232Z,59.7
2017-07-22T01:31:26.596Z,59.7
2017-07-22T01:32:48.201Z,60.0
2017-07-22T01:33:49.568Z,60.0
2017-07-22T01:35:11.136Z,60.7
2017-07-22T01:36:12.499Z,61.4
2017-07-22T01:37:34.616Z,62.1
2017-07-22T01:38:35.981Z,62.0
2017-07-22T01:39:57.547Z,62.3
2017-07-22T01:40:58.911Z,63.4
2017-07-22T01:42:20.522Z,64.1
2017-07-22T01:43:21.881Z,64.1
2017-07-22T01:44:43.448Z,63.4
2017-07-22T01:45:44.821Z,63.1
2017-07-22T01:47:06.400Z,63.3
2017-07-22T01:48:07.762Z,63.4
2017-07-22T01:49:29.368Z,63.7
2017-07-22T01:50:30.734Z,63.6
2017-07-22T01:51:52.304Z,63.6
2017-07-22T01:52:53.666Z,64.0
2017-07-22T01:54:15.271Z,64.4
2017-07-22T01:55:16.635Z,64.5
2017-07-22T01:56:38.200Z,65.4
2017-07-22T01:57:39.564Z,65.0
2017-07-22T01:59:01.170Z,65.9
2017-07-22T02:00:02.533Z,65.4
2017-07-22T02:01:24.107Z,65.9
2017-07-22T02:02:25.470Z,66.1
2017-07-22T02:03:47.078Z,67.1
2017-07-22T02:04:48.440Z,66.5
2017-07-22T02:06:10.006Z,67.2
2017-07-22T02:07:11.368Z,66.5
2017-07-22T02:08:32.976Z,67.2
2017-07-22T02:09:34.342Z,67.2
2017-07-22T02:10:55.911Z,67.2
2017-07-22T02:11:57.272Z,67.5
2017-07-22T02:13:18.878Z,67.8
2017-07-22T02:14:20.243Z,68.0
2017-07-22T02:15:41.810Z,68.0
2017-07-22T02:16:43.172Z,68.9
2017-07-22T02:18:04.784Z,69.0
2017-07-22T02:19:06.143Z,69.0
2017-07-22T02:20:27.713Z,69.3
2017-07-22T02:21:29.075Z,69.3
2017-07-22T02:22:50.818Z,70.5
2017-07-22T02:23:52.186Z,70.1
2017-07-22T02:25:14.287Z,69.8
2017-07-22T02:26:15.649Z,69.8
2017-07-22T02:27:37.301Z,69.8
2017-07-22T02:28:38.662Z,70.1
2017-07-22T02:30:00.742Z,70.1
2017-07-22T02:31:02.105Z,70.0
2017-07-22T02:32:23.693Z,70.1
2017-07-22T02:33:25.053Z,70.5
2017-07-22T02:34:47.174Z,70.0
2017-07-22T02:35:48.538Z,70.2
2017-07-22T02:37:10.106Z,70.5
2017-07-22T02:38:11.466Z,70.1
2017-07-22T02:39:33.078Z,69.6
2017-07-22T02:40:34.439Z,69.9
2017-07-22T02:41:56.007Z,68.4
2017-07-22T02:42:57.367Z,68.7
2017-07-22T02:44:18.980Z,68.8
2017-07-22T02:45:20.339Z,69.5
2017-07-22T02:46:46.927Z,71.1
2017-07-22T02:47:48.289Z,71.1
2017-07-22T02:49:09.902Z,71.0
2017-07-22T02:50:50.847Z,70.7
2017-07-22T02:51:52.211Z,70.9
2017-07-22T02:53:13.822Z,71.1
2017-07-22T02:54:15.180Z,70.1
2017-07-22T02:55:36.746Z,70.8
2017-07-22T02:56:38.107Z,70.0
2017-07-22T02:57:59.720Z,70.1
2017-07-22T02:59:01.077Z,69.8
2017-07-22T03:00:22.647Z,70.2
2017-07-22T03:01:24.008Z,70.9
2017-07-22T03:02:45.616Z,70.3
2017-07-22T03:03:46.982Z,70.5
2017-07-22T03:05:08.567Z,71.3
2017-07-22T03:06:09.932Z,71.5
2017-07-22T03:07:31.498Z,72.1
2017-07-22T03:08:32.860Z,71.8
2017-07-22T03:09:54.471Z,72.7
2017-07-22T03:10:55.831Z,72.6
2017-07-22T03:12:17.399Z,72.5
2017-07-22T03:13:18.760Z,73.5
2017-07-22T03:14:40.368Z,74.5
2017-07-22T03:15:41.733Z,73.9
2017-07-22T03:17:03.301Z,75.8
2017-07-22T03:18:04.662Z,75.6
2017-07-22T03:19:26.274Z,76.7
2017-07-22T03:20:27.634Z,76.6
2017-07-22T03:21:49.202Z,76.4
2017-07-22T03:22:50.564Z,76.6
2017-07-22T03:24:12.176Z,76.6
2017-07-22T03:25:13.536Z,77.3
2017-07-22T03:26:35.105Z,77.6
2017-07-22T03:27:36.468Z,77.7
2017-07-22T03:28:58.074Z,77.8
2017-07-22T03:29:59.437Z,77.7
2017-07-22T03:31:21.006Z,77.6
2017-07-22T03:32:22.367Z,78.0
2017-07-22T03:33:43.975Z,77.8
2017-07-22T03:34:45.337Z,77.6
2017-07-22T03:36:06.908Z,78.2
2017-07-22T03:37:08.273Z,78.7
2017-07-22T03:38:30.391Z,78.5
2017-07-22T03:39:31.756Z,78.3
2017-07-22T03:40:53.322Z,78.9
2017-07-22T03:41:54.685Z,78.7
2017-07-22T03:43:16.298Z,79.1
2017-07-22T03:44:17.656Z,79.2
2017-07-22T03:45:39.735Z,78.6
2017-07-22T03:46:41.098Z,79.4
2017-07-22T03:48:02.689Z,79.0
2017-07-22T03:49:04.050Z,79.2
2017-07-22T03:50:25.657Z,79.1
2017-07-22T03:51:27.021Z,79.4
2017-07-22T03:52:48.588Z,79.1
2017-07-22T03:53:49.951Z,79.2
2017-07-22T03:55:11.557Z,79.3
2017-07-22T03:56:12.922Z,79.1
2017-07-22T03:57:35.000Z,79.3
2017-07-22T03:58:36.364Z,79.2
2017-07-22T03:59:57.971Z,79.2
2017-07-22T04:00:59.336Z,78.7
2017-07-22T04:02:21.414Z,79.1
2017-07-22T04:03:22.780Z,78.6
2017-07-22T04:04:44.383Z,79.0
2017-07-22T04:05:45.748Z,79.0
2017-07-22T04:07:07.320Z,79.4
2017-07-22T04:08:08.678Z,79.1
2017-07-22T04:09:30.292Z,79.5
2017-07-22T04:10:31.650Z,79.3
2017-07-22T04:11:53.218Z,79.4
2017-07-22T04:12:54.581Z,79.1
2017-07-22T04:14:16.186Z,79.2
2017-07-22T04:15:17.551Z,79.1
2017-07-22T04:16:39.119Z,79.0
2017-07-22T04:17:40.484Z,79.1
2017-07-22T04:19:03.625Z,78.8
2017-07-22T04:20:04.991Z,78.7
2017-07-22T04:21:26.559Z,78.8
2017-07-22T04:22:27.922Z,78.7
2017-07-22T04:23:49.529Z,78.9
2017-07-22T04:24:50.896Z,79.1
2017-07-22T04:26:12.460Z,78.9
2017-07-22T04:27:13.824Z,78.6
2017-07-22T04:28:35.450Z,78.6
2017-07-22T04:29:36.816Z,78.3
2017-07-22T04:30:58.364Z,78.4
2017-07-22T04:31:59.733Z,78.4
2017-07-22T04:33:21.312Z,78.4
2017-07-22T04:34:22.677Z,78.4
2017-07-22T04:35:54.223Z,78.1
2017-07-22T04:36:55.682Z,78.2
2017-07-22T04:38:17.196Z,77.6
2017-07-22T04:39:18.565Z,77.5
2017-07-22T04:40:40.105Z,77.9
2017-07-22T04:41:41.470Z,77.3
2017-07-22T04:43:02.991Z,77.5
2017-07-22T04:44:04.358Z,77.6
2017-07-22T04:45:25.897Z,77.3
2017-07-22T04:46:27.262Z,77.1
2017-07-22T04:47:48.782Z,77.1
2017-07-22T04:48:50.149Z,77.0
2017-07-22T04:50:11.688Z,77.0
2017-07-22T04:51:13.054Z,76.8
2017-07-22T04:52:34.576Z,77.3
2017-07-22T04:53:35.942Z,77.6
2017-07-22T04:54:57.483Z,77.5
2017-07-22T04:55:58.848Z,76.5
2017-07-22T04:57:20.370Z,76.6
2017-07-22T04:58:21.735Z,76.8
2017-07-22T04:59:43.274Z,77.1
2017-07-22T05:00:44.638Z,76.8
2017-07-22T05:02:06.161Z,76.8
2017-07-22T05:03:07.529Z,77.1
2017-07-22T05:04:29.068Z,76.7
2017-07-22T05:05:30.434Z,77.5
2017-07-22T05:06:51.957Z,77.7
2017-07-22T05:07:53.327Z,77.3
2017-07-22T05:09:14.863Z,77.4
2017-07-22T05:10:16.229Z,78.0
2017-07-22T05:11:37.753Z,76.7
2017-07-22T05:12:39.120Z,77.6
2017-07-22T05:14:00.680Z,77.6
2017-07-22T05:15:02.047Z,77.5
2017-07-22T05:16:23.568Z,76.8
2017-07-22T05:17:24.933Z,77.6
2017-07-22T05:18:46.452Z,77.6
2017-07-22T05:19:47.816Z,77.7
2017-07-22T05:21:09.357Z,77.0
2017-07-22T05:22:10.722Z,77.9
2017-07-22T05:23:32.320Z,78.0
2017-07-22T05:24:33.699Z,77.7
2017-07-22T05:25:55.261Z,78.4
2017-07-22T05:26:56.625Z,78.2
2017-07-22T05:28:18.197Z,79.1
2017-07-22T05:29:19.569Z,79.5
2017-07-22T05:30:41.119Z,80.5
2017-07-22T05:31:42.487Z,81.0
2017-07-22T05:33:04.009Z,80.5
2017-07-22T05:34:05.378Z,80.5
2017-07-22T05:35:26.920Z,79.9
2017-07-22T05:36:28.286Z,80.5
2017-07-22T05:37:49.806Z,81.1
2017-07-22T05:38:51.175Z,81.0
2017-07-22T05:40:12.717Z,80.4
2017-07-22T05:41:14.085Z,80.1
2017-07-22T05:42:35.602Z,79.9
2017-07-22T05:43:36.972Z,80.0
2017-07-22T05:44:58.510Z,80.1
2017-07-22T05:45:59.874Z,79.7
2017-07-22T05:47:21.396Z,80.0
2017-07-22T05:48:22.768Z,80.0
2017-07-22T05:49:44.299Z,79.6
2017-07-22T05:50:45.713Z,80.0
2017-07-22T05:52:07.262Z,79.7
2017-07-22T05:53:08.627Z,79.6
2017-07-22T05:54:30.166Z,80.1
2017-07-22T05:55:31.533Z,79.7
2017-07-22T05:56:53.058Z,79.4
2017-07-22T05:57:54.427Z,78.5
2017-07-22T05:59:15.947Z,78.0
2017-07-22T06:00:17.315Z,78.2
2017-07-22T06:01:39.013Z,78.7
2017-07-22T06:02:40.554Z,78.7
2017-07-22T06:04:02.220Z,78.7
2017-07-22T06:05:03.619Z,78.8
2017-07-22T06:06:25.182Z,78.1
2017-07-22T06:07:26.564Z,78.8
2017-07-22T06:08:48.151Z,79.0
2017-07-22T06:09:49.521Z,78.1
2017-07-22T06:11:11.062Z,78.5
2017-07-22T06:12:12.430Z,78.3
2017-07-22T06:13:33.967Z,78.5
2017-07-22T06:14:35.325Z,78.6
2017-07-22T06:15:56.867Z,78.5
2017-07-22T06:16:58.235Z,78.3
2017-07-22T06:18:19.772Z,78.4
2017-07-22T06:19:21.143Z,79.6
2017-07-22T06:20:42.686Z,79.4
2017-07-22T06:21:44.054Z,78.9
2017-07-22T06:23:05.583Z,78.9
2017-07-22T06:24:06.946Z,78.8
2017-07-22T06:25:28.492Z,79.9
2017-07-22T06:26:29.864Z,79.9
2017-07-22T06:27:51.389Z,80.1
2017-07-22T06:28:52.760Z,80.1
2017-07-22T06:30:14.299Z,80.0
2017-07-22T06:31:15.667Z,79.9
2017-07-22T06:32:37.191Z,79.7
2017-07-22T06:33:38.566Z,80.0
2017-07-22T06:35:01.130Z,80.5
2017-07-22T06:36:02.506Z,80.4
2017-07-22T06:37:24.025Z,80.4
2017-07-22T06:38:25.395Z,81.4
2017-07-22T06:39:46.973Z,81.7
2017-07-22T06:40:48.363Z,80.5
2017-07-22T06:42:09.891Z,80.6
2017-07-22T06:43:11.258Z,80.4
2017-07-22T06:44:32.785Z,79.5
2017-07-22T06:45:34.174Z,79.4
2017-07-22T06:46:55.726Z,79.2
2017-07-22T06:47:57.091Z,79.1
2017-07-22T06:49:18.619Z,78.3
2017-07-22T06:50:19.987Z,78.0
2017-07-22T06:51:41.527Z,77.9
2017-07-22T06:52:42.895Z,77.5
2017-07-22T06:54:04.424Z,78.5
2017-07-22T06:55:05.793Z,78.7
2017-07-22T06:56:27.339Z,78.8
2017-07-22T06:57:28.708Z,78.8
2017-07-22T06:58:50.233Z,78.1
2017-07-22T06:59:51.602Z,78.1
2017-07-22T07:01:13.148Z,78.1
2017-07-22T07:02:14.522Z,78.2
2017-07-22T07:03:36.043Z,77.6
2017-07-22T07:04:37.412Z,78.0
2017-07-22T07:05:58.955Z,78.1
2017-07-22T07:07:00.327Z,77.9
2017-07-22T07:08:21.857Z,78.2
2017-07-22T07:09:23.223Z,78.4
2017-07-22T07:10:44.769Z,76.6
2017-07-22T07:11:46.337Z,76.4
2017-07-22T07:13:07.894Z,75.5
2017-07-22T07:14:09.266Z,75.0
2017-07-22T07:15:30.805Z,74.7
2017-07-22T07:16:32.178Z,74.1
2017-07-22T07:17:53.705Z,73.3
2017-07-22T07:18:55.081Z,74.8
2017-07-22T07:20:16.625Z,73.5
2017-07-22T07:21:17.996Z,72.3
2017-07-22T07:22:39.527Z,73.2
2017-07-22T07:23:40.897Z,71.6
2017-07-22T07:25:02.455Z,72.8
2017-07-22T07:26:03.829Z,72.1
2017-07-22T07:27:25.557Z,71.8
2017-07-22T07:28:26.934Z,72.2
2017-07-22T07:29:48.602Z,72.5
2017-07-22T07:30:50.026Z,73.1
2017-07-22T07:32:11.773Z,73.4
2017-07-22T07:33:13.141Z,74.6
2017-07-22T07:34:34.667Z,71.5
2017-07-22T07:35:36.038Z,71.2
2017-07-22T07:36:57.583Z,70.8
2017-07-22T07:37:58.953Z,72.0
2017-07-22T07:39:20.482Z,72.2
2017-07-22T07:40:21.853Z,72.0
2017-07-22T07:41:43.402Z,73.1
2017-07-22T07:42:44.857Z,72.0
2017-07-22T07:44:06.400Z,72.0
2017-07-22T07:45:07.756Z,69.6
2017-07-22T07:46:29.302Z,68.9
2017-07-22T07:47:31.093Z,69.1
2017-07-22T07:48:52.624Z,70.5
2017-07-22T07:49:53.997Z,69.6
2017-07-22T07:51:15.543Z,70.6
2017-07-22T07:52:16.914Z,70.5
2017-07-22T07:53:38.442Z,70.1
2017-07-22T07:54:39.844Z,72.2
2017-07-22T07:56:01.398Z,69.7
2017-07-22T07:57:02.768Z,70.5
2017-07-22T07:58:24.293Z,69.8
2017-07-22T07:59:26.082Z,67.5
2017-07-22T08:00:47.727Z,69.5
2017-07-22T08:01:49.759Z,67.6
2017-07-22T08:03:11.293Z,67.2
2017-07-22T08:04:12.667Z,67.3
2017-07-22T08:05:34.214Z,67.1
2017-07-22T08:06:35.586Z,66.1
2017-07-22T08:07:57.118Z,68.3
2017-07-22T08:08:58.566Z,68.2
2017-07-22T08:10:20.091Z,68.0
2017-07-22T08:11:21.465Z,67.8
2017-07-22T08:12:43.010Z,63.5
2017-07-22T08:13:44.397Z,63.1
2017-07-22T08:15:05.924Z,64.2
2017-07-22T08:16:07.624Z,63.2
2017-07-22T08:17:29.156Z,63.7
2017-07-22T08:18:30.529Z,65.6
2017-07-22T08:19:52.055Z,67.7
2017-07-22T08:20:54.091Z,67.2
2017-07-22T08:22:15.620Z,66.0
2017-07-22T08:23:16.991Z,65.9
2017-07-22T08:24:38.522Z,66.2
2017-07-22T08:25:39.893Z,66.4
2017-07-22T08:27:01.438Z,67.5
2017-07-22T08:28:02.810Z,67.7
2017-07-22T08:29:24.338Z,67.5
2017-07-22T08:30:25.709Z,68.2
2017-07-22T08:31:47.252Z,68.4
2017-07-22T08:32:48.622Z,68.3
2017-07-22T08:34:10.151Z,67.4
2017-07-22T08:35:11.522Z,67.8
2017-07-22T08:36:33.070Z,67.1
2017-07-22T08:37:34.442Z,67.9
2017-07-22T08:38:55.971Z,66.4
2017-07-22T08:39:57.356Z,67.0
2017-07-22T08:41:18.902Z,66.4
2017-07-22T08:42:20.281Z,66.9
2017-07-22T08:43:41.805Z,66.2
2017-07-22T08:44:43.176Z,65.4
2017-07-22T08:46:04.727Z,65.2
2017-07-22T08:47:06.096Z,62.5
2017-07-22T08:48:27.624Z,64.7
2017-07-22T08:49:28.993Z,63.9
2017-07-22T08:50:50.541Z,63.9
2017-07-22T08:51:51.914Z,66.4
2017-07-22T08:53:13.441Z,63.8
2017-07-22T08:54:14.817Z,61.7
2017-07-22T08:55:36.340Z,62.5
2017-07-22T08:56:37.711Z,63.8
2017-07-22T08:57:59.257Z,61.6
2017-07-22T08:59:00.628Z,59.9
2017-07-22T09:00:22.157Z,62.3
2017-07-22T09:01:23.531Z,61.9
2017-07-22T09:02:45.080Z,59.6
2017-07-22T09:03:46.450Z,60.1
2017-07-22T09:05:07.984Z,59.5
2017-07-22T09:06:09.355Z,58.6
2017-07-22T09:07:30.903Z,58.6
2017-07-22T09:08:32.273Z,59.0
2017-07-22T09:09:53.811Z,60.8
2017-07-22T09:10:55.184Z,60.7
2017-07-22T09:12:16.729Z,60.9
2017-07-22T09:13:18.101Z,60.6
2017-07-22T09:14:39.634Z,61.4
2017-07-22T09:15:41.005Z,62.8
2017-07-22T09:17:02.561Z,61.7
2017-07-22T09:18:03.923Z,61.7
2017-07-22T09:19:25.467Z,60.4
2017-07-22T09:20:26.919Z,58.9
2017-07-22T09:21:48.477Z,60.5
2017-07-22T09:22:49.850Z,60.5
2017-07-22T09:24:11.377Z,60.7
2017-07-22T09:25:12.750Z,58.7
2017-07-22T09:26:34.301Z,59.9
2017-07-22T09:27:35.672Z,59.8
2017-07-22T09:28:57.201Z,58.1
2017-07-22T09:29:58.574Z,58.2
2017-07-22T09:31:20.123Z,59.4
2017-07-22T09:32:21.493Z,57.0
2017-07-22T09:33:43.024Z,56.4
2017-07-22T09:34:44.425Z,58.8
2017-07-22T09:36:05.976Z,57.2
2017-07-22T09:37:07.364Z,58.0
2017-07-22T09:38:28.895Z,59.7
2017-07-22T09:39:30.266Z,58.5
2017-07-22T09:40:51.796Z,56.5
2017-07-22T09:41:53.167Z,57.6
2017-07-22T09:43:14.729Z,59.9
2017-07-22T09:44:16.101Z,60.8
2017-07-22T09:45:37.630Z,57.9
2017-07-22T09:46:39.003Z,58.2
2017-07-22T09:48:00.550Z,57.4
2017-07-22T09:49:01.922Z,58.2
2017-07-22T09:50:23.454Z,56.9
2017-07-22T09:51:24.828Z,54.6
2017-07-22T09:52:46.375Z,54.1
2017-07-22T09:53:47.747Z,55.5
2017-07-22T09:55:09.278Z,55.0
2017-07-22T09:56:10.647Z,57.2
2017-07-22T09:57:32.194Z,56.5
2017-07-22T09:58:33.569Z,54.8
2017-07-22T09:59:55.097Z,56.9
2017-07-22T10:00:56.471Z,57.5
2017-07-22T10:02:18.015Z,58.5
2017-07-22T10:03:19.388Z,56.4
2017-07-22T10:04:40.920Z,55.9
2017-07-22T10:05:42.290Z,53.5
2017-07-22T10:07:03.839Z,57.0
2017-07-22T10:08:05.213Z,56.2
2017-07-22T10:09:26.743Z,54.8
2017-07-22T10:10:28.118Z,54.2
2017-07-22T10:11:49.665Z,53.7
2017-07-22T10:12:51.036Z,52.0
2017-07-22T10:14:12.565Z,53.9
2017-07-22T10:15:13.938Z,54.8
2017-07-22T10:16:35.486Z,53.8
2017-07-22T10:17:36.870Z,54.7
2017-07-22T10:18:58.393Z,52.7
2017-07-22T10:19:59.766Z,52.3
2017-07-22T10:21:21.316Z,50.3
2017-07-22T10:22:22.691Z,50.5
2017-07-22T10:23:44.221Z,50.1
2017-07-22T10:24:45.594Z,50.3
2017-07-22T10:26:07.121Z,51.6
2017-07-22T10:27:08.495Z,53.6
2017-07-22T10:28:30.061Z,53.5
2017-07-22T10:29:31.436Z,53.9
2017-07-22T10:30:52.973Z,51.1
2017-07-22T10:31:54.338Z,50.2
2017-07-22T10:33:15.886Z,52.0
2017-07-22T10:34:17.275Z,51.4
2017-07-22T10:35:38.785Z,52.2
2017-07-22T10:36:40.158Z,53.3
2017-07-22T10:38:01.703Z,51.1
2017-07-22T10:39:03.077Z,51.6
2017-07-22T10:40:24.609Z,50.3
2017-07-22T10:41:25.985Z,50.3
2017-07-22T10:42:47.533Z,51.4
2017-07-22T10:43:48.905Z,51.5
2017-07-22T10:45:10.434Z,52.7
2017-07-22T10:46:11.807Z,51.5
2017-07-22T10:47:33.352Z,51.3
2017-07-22T10:48:34.725Z,49.2
2017-07-22T10:49:56.251Z,50.1
2017-07-22T10:50:57.625Z,50.5
2017-07-22T10:52:19.175Z,48.1
2017-07-22T10:53:20.547Z,48.9
2017-07-22T10:54:42.077Z,48.7
2017-07-22T10:55:43.451Z,48.8
2017-07-22T10:57:05.001Z,49.8
2017-07-22T10:58:06.370Z,50.4
2017-07-22T10:59:27.900Z,47.6
2017-07-22T11:00:29.274Z,47.5
2017-07-22T11:01:50.822Z,47.3
2017-07-22T11:02:52.194Z,48.9
2017-07-22T11:04:13.720Z,48.1
2017-07-22T11:05:15.094Z,48.9
2017-07-22T11:06:36.623Z,48.7
2017-07-22T11:07:38.003Z,47.1
2017-07-22T11:08:59.547Z,47.8
2017-07-22T11:10:00.941Z,46.4
2017-07-22T11:11:22.470Z,46.5
2017-07-22T11:12:23.848Z,45.7
2017-07-22T11:13:45.396Z,46.6
2017-07-22T11:14:46.769Z,46.6
2017-07-22T11:16:08.295Z,45.1
2017-07-22T11:17:09.672Z,45.9
2017-07-22T11:18:31.220Z,46.3
2017-07-22T11:19:32.593Z,45.2
2017-07-22T11:20:54.127Z,46.1
2017-07-22T11:21:55.501Z,43.9
2017-07-22T11:23:17.216Z,46.5
2017-07-22T11:24:18.615Z,43.2
2017-07-22T11:25:40.149Z,43.2
2017-07-22T11:26:41.523Z,43.0
2017-07-22T11:28:03.072Z,43.3
2017-07-22T11:29:04.444Z,43.5
2017-07-22T11:30:25.978Z,44.6
2017-07-22T11:31:27.351Z,43.0
2017-07-22T11:32:48.911Z,42.3
2017-07-22T11:33:50.286Z,44.9
2017-07-22T11:35:11.817Z,42.4
2017-07-22T11:36:13.198Z,41.9
2017-07-22T11:37:34.742Z,44.0
2017-07-22T11:38:36.118Z,43.9
2017-07-22T11:39:57.655Z,42.4
2017-07-22T11:40:59.026Z,43.1
2017-07-22T11:42:20.592Z,41.2
2017-07-22T11:43:21.950Z,43.2
2017-07-22T11:44:43.482Z,43.3
2017-07-22T11:45:44.856Z,40.6
2017-07-22T11:47:06.409Z,42.1
2017-07-22T11:48:07.781Z,41.6
2017-07-22T11:49:29.311Z,40.8
2017-07-22T11:50:30.689Z,41.7
2017-07-22T11:51:52.218Z,42.6
2017-07-22T11:52:53.595Z,43.2
2017-07-22T11:54:15.145Z,39.9
2017-07-22T11:55:16.520Z,39.7
2017-07-22T11:56:38.050Z,40.0
2017-07-22T11:57:39.427Z,42.1
2017-07-22T11:59:00.980Z,42.8
2017-07-22T12:00:02.356Z,43.8
2017-07-22T12:01:23.889Z,42.0
2017-07-22T12:02:25.263Z,42.4
2017-07-22T12:03:46.810Z,38.3
2017-07-22T12:04:48.186Z,39.6
2017-07-22T12:06:09.719Z,37.8
2017-07-22T12:07:11.096Z,37.7
2017-07-22T12:08:32.709Z,39.6
2017-07-22T12:09:34.084Z,39.6
2017-07-22T12:10:55.616Z,39.3
2017-07-22T12:11:56.990Z,39.3
2017-07-22T12:13:18.548Z,39.7
2017-07-22T12:14:19.923Z,39.6
2017-07-22T12:15:41.453Z,36.9
2017-07-22T12:16:42.932Z,36.3
2017-07-22T12:18:04.511Z,37.0
2017-07-22T12:19:06.025Z,37.1
2017-07-22T12:20:27.568Z,38.5
2017-07-22T12:21:28.949Z,36.7
2017-07-22T12:22:50.503Z,36.9
2017-07-22T12:23:51.877Z,38.2
2017-07-22T12:25:13.409Z,38.4
2017-07-22T12:26:14.800Z,38.5
2017-07-22T12:27:36.354Z,38.1
2017-07-22T12:28:37.745Z,36.2
2017-07-22T12:29:59.287Z,37.2
2017-07-22T12:31:00.709Z,37.1
2017-07-22T12:32:22.288Z,38.3
2017-07-22T12:33:23.692Z,39.0
2017-07-22T12:34:45.258Z,37.7
2017-07-22T12:35:46.692Z,39.3
2017-07-22T12:37:08.722Z,38.7
2017-07-22T12:38:10.108Z,39.3
2017-07-22T12:39:31.660Z,38.6
2017-07-22T12:40:33.097Z,36.9
2017-07-22T12:41:54.851Z,36.7
2017-07-22T12:42:56.233Z,37.7
2017-07-22T12:44:17.791Z,38.4
2017-07-22T12:45:19.173Z,38.4
2017-07-22T12:46:40.973Z,37.5
2017-07-22T12:47:42.359Z,36.0
2017-07-22T12:49:03.916Z,39.5
2017-07-22T12:50:05.292Z,38.8
2017-07-22T12:51:26.827Z,37.7
2017-07-22T12:52:28.202Z,36.4
2017-07-22T12:53:49.754Z,38.2
2017-07-22T12:54:51.129Z,38.1
2017-07-22T12:56:12.667Z,38.3
2017-07-22T12:57:14.247Z,37.8
2017-07-22T12:58:35.776Z,37.9
2017-07-22T12:59:37.151Z,38.1
2017-07-22T13:00:58.687Z,38.0
2017-07-22T13:02:00.061Z,37.3
2017-07-22T13:03:21.612Z,38.5
2017-07-22T13:04:22.987Z,38.5
2017-07-22T13:05:44.528Z,38.7
2017-07-22T13:06:46.169Z,37.6
2017-07-22T13:08:07.731Z,36.9
2017-07-22T13:09:09.109Z,36.5
2017-07-22T13:10:30.643Z,35.5
2017-07-22T13:11:32.019Z,36.7
2017-07-22T13:12:53.570Z,36.9
2017-07-22T13:13:54.946Z,34.6
2017-07-22T13:15:16.482Z,34.5
2017-07-22T13:16:17.856Z,34.2
2017-07-22T13:17:39.436Z,36.2
2017-07-22T13:18:40.812Z,33.2
2017-07-22T13:20:02.344Z,35.0
2017-07-22T13:21:03.741Z,34.5
2017-07-22T13:22:25.342Z,35.5
2017-07-22T13:23:26.829Z,37.7
2017-07-22T13:24:48.409Z,36.7
2017-07-22T13:25:49.795Z,37.2
2017-07-22T13:27:11.374Z,34.3
2017-07-22T13:28:12.815Z,34.9
2017-07-22T13:29:34.380Z,33.9
2017-07-22T13:30:35.759Z,32.4
2017-07-22T13:31:57.295Z,34.1
2017-07-22T13:32:58.709Z,33.9
2017-07-22T13:34:20.272Z,32.1
2017-07-22T13:35:21.649Z,32.3
2017-07-22T13:36:43.189Z,34.0
2017-07-22T13:37:44.564Z,35.7
2017-07-22T13:39:06.237Z,33.3
2017-07-22T13:40:07.607Z,33.0
2017-07-22T13:41:29.142Z,33.8
2017-07-22T13:42:30.519Z,32.0
2017-07-22T13:43:52.074Z,31.0
2017-07-22T13:44:53.450Z,31.8
2017-07-22T13:46:14.982Z,35.3
2017-07-22T13:47:16.358Z,35.1
2017-07-22T13:48:37.995Z,35.3
2017-07-22T13:49:39.373Z,35.0
2017-07-22T13:51:00.938Z,32.6
2017-07-22T13:52:02.326Z,32.1
2017-07-22T13:53:23.976Z,34.3
2017-07-22T13:54:25.457Z,34.1
2017-07-22T13:55:46.993Z,33.2
2017-07-22T13:56:48.428Z,34.0
2017-07-22T13:58:09.987Z,31.0
2017-07-22T13:59:11.446Z,32.4
2017-07-22T14:00:33.070Z,34.5
2017-07-22T14:01:34.463Z,35.8
2017-07-22T14:02:56.007Z,33.1
2017-07-22T14:03:57.464Z,33.5
2017-07-22T14:05:19.077Z,32.6
2017-07-22T14:06:20.456Z,29.3
2017-07-22T14:07:42.061Z,29.9
2017-07-22T14:08:43.507Z,29.8
2017-07-22T14:10:05.027Z,30.3
2017-07-22T14:11:06.454Z,32.2
2017-07-22T14:12:28.099Z,34.5
2017-07-22T14:13:29.812Z,32.6
2017-07-22T14:14:51.389Z,33.7
2017-07-22T14:15:52.795Z,31.9
2017-07-22T14:17:14.349Z,33.2
2017-07-22T14:18:15.736Z,33.9
2017-07-22T14:19:37.432Z,33.2
2017-07-22T14:20:38.901Z,32.5
2017-07-22T14:22:00.597Z,32.6
2017-07-22T14:23:01.980Z,31.6
2017-07-22T14:24:23.570Z,31.3
2017-07-22T14:25:25.026Z,30.9
2017-07-22T14:26:46.619Z,31.9
2017-07-22T14:27:48.003Z,30.4
2017-07-22T14:29:09.558Z,27.7
2017-07-22T14:30:10.936Z,27.4
2017-07-22T14:31:32.471Z,28.5
2017-07-22T16:05:01.050Z,33.9
2017-07-22T16:06:02.424Z,34.1
2017-07-22T16:07:23.961Z,33.0
2017-07-22T16:08:25.337Z,35.1
2017-07-22T16:09:46.928Z,34.5
2017-07-22T16:10:48.309Z,34.7
2017-07-22T16:12:09.843Z,35.2
2017-07-22T16:13:11.242Z,35.0
2017-07-22T16:14:32.874Z,34.5
2017-07-22T16:15:34.306Z,33.2
2017-07-22T16:16:55.851Z,33.7
2017-07-22T16:17:57.306Z,33.7
2017-07-22T16:19:18.922Z,34.0
2017-07-22T16:20:20.344Z,33.0
2017-07-22T16:21:41.894Z,35.0
2017-07-22T16:22:43.614Z,35.5
2017-07-22T16:24:06.173Z,35.0
2017-07-22T16:25:07.617Z,34.6
2017-07-22T16:26:34.041Z,34.2
2017-07-22T16:27:35.594Z,34.1
2017-07-22T16:28:57.279Z,35.7
2017-07-22T16:29:58.719Z,34.7
2017-07-22T16:31:20.548Z,34.4
2017-07-22T16:32:21.967Z,34.9
2017-07-22T16:33:43.591Z,35.5
2017-07-22T16:34:44.978Z,35.6
2017-07-22T16:36:06.535Z,35.1
2017-07-22T16:37:07.922Z,36.0
2017-07-22T16:38:29.482Z,36.3
2017-07-22T16:39:30.864Z,35.9
2017-07-22T16:40:52.421Z,35.9
2017-07-22T16:41:53.883Z,36.6
2017-07-22T16:43:15.420Z,36.0
2017-07-22T16:44:16.796Z,35.8
2017-07-22T16:45:38.346Z,36.1
2017-07-22T16:46:39.733Z,36.2
2017-07-22T16:48:01.292Z,36.2
2017-07-22T16:49:02.727Z,36.1
2017-07-22T16:50:24.260Z,33.5
2017-07-22T16:51:25.639Z,35.6
2017-07-22T16:52:47.182Z,35.2
2017-07-22T16:53:48.563Z,33.9
2017-07-22T16:55:10.112Z,33.4
2017-07-22T16:56:11.487Z,32.8
2017-07-22T16:57:33.025Z,31.3
2017-07-22T16:58:35.296Z,32.4
2017-07-22T16:59:56.840Z,32.6
2017-07-22T17:00:58.858Z,32.5
2017-07-22T17:02:20.386Z,32.6
2017-07-22T17:03:21.763Z,32.8
2017-07-22T17:04:44.955Z,32.5
2017-07-22T17:05:46.262Z,33.1
2017-07-22T17:07:09.418Z,32.8
2017-07-22T17:08:10.424Z,33.5
2017-07-22T17:09:31.979Z,33.1
2017-07-22T17:10:33.357Z,32.7
2017-07-22T17:11:54.892Z,33.3
2017-07-22T17:12:56.266Z,34.3
2017-07-22T17:14:17.806Z,35.2
2017-07-22T17:15:19.182Z,35.7
2017-07-22T17:16:40.740Z,36.2
2017-07-22T17:17:42.107Z,37.0
2017-07-22T17:19:03.641Z,37.6
2017-07-22T17:20:05.020Z,37.2
2017-07-22T17:21:26.612Z,37.2
2017-07-22T17:22:27.988Z,37.8
2017-07-22T17:23:49.947Z,38.1
2017-07-22T17:24:51.694Z,37.8